Time;durP1;ratioP1;P1;durP2;ratioP2;P2;SDS_P1;SDS_P2;PMS_P1;PMS_P2;Temp;Humidity;BMP_temperature;BMP_pressure;BME280_temperature;BME280_humidity;BME280_pressure;Samples;Min_cycle;Max_cycle;Signal;HPM_P1;HPM_P2
2021/06/12 00:01:14;;;;;;;2.40;2.30;;;;;;;18.08;94.45;100568.03;5050594;28;20191;-73
2021/06/12 00:03:39;;;;;;;2.87;2.67;;;;;;;18.03;94.59;100571.88;5050298;28;20203;-72
2021/06/12 00:06:06;;;;;;;2.90;2.70;;;;;;;17.94;94.95;100578.75;5050168;28;20171;-72
2021/06/12 00:08:32;;;;;;;2.07;1.97;;;;;;;17.86;95.66;100576.97;5049983;28;20206;-72
2021/06/12 00:10:57;;;;;;;2.40;2.23;;;;;;;17.74;95.82;100569.56;5050309;28;20202;-72
2021/06/12 00:13:23;;;;;;;2.60;2.40;;;;;;;17.64;96.72;100572.84;5050277;28;20631;-73
2021/06/12 00:15:49;;;;;;;3.10;2.80;;;;;;;17.67;96.85;100564.66;5050517;28;20187;-72
2021/06/12 00:18:14;;;;;;;2.50;2.40;;;;;;;17.65;96.82;100571.69;5049910;28;20182;-72
2021/06/12 00:20:39;;;;;;;2.10;2.00;;;;;;;17.50;97.51;100578.78;5050007;28;20178;-72
2021/06/12 00:23:06;;;;;;;2.70;2.50;;;;;;;17.41;98.33;100584.50;5049945;28;20214;-72
2021/06/12 00:25:32;;;;;;;3.90;3.60;;;;;;;17.42;99.00;100590.81;5049815;28;20206;-72
2021/06/12 00:27:59;;;;;;;3.20;2.93;;;;;;;17.43;99.14;100589.66;5055284;28;20214;-72
2021/06/12 00:30:25;;;;;;;2.77;2.63;;;;;;;17.45;99.11;100588.16;5064805;28;20180;-73
2021/06/12 00:32:50;;;;;;;3.37;2.97;;;;;;;17.49;99.44;100588.25;5070915;28;20196;-72
2021/06/12 00:35:16;;;;;;;3.13;2.87;;;;;;;17.53;99.37;100584.44;5062549;28;20630;-72
2021/06/12 00:37:42;;;;;;;2.97;2.77;;;;;;;17.57;99.60;100586.47;5050288;28;20174;-73
2021/06/12 00:40:09;;;;;;;3.27;3.07;;;;;;;17.58;99.39;100582.56;5050546;28;20178;-72
2021/06/12 00:42:37;;;;;;;5.00;3.00;;;;;;;17.57;99.52;100576.22;5050388;28;20195;-72
2021/06/12 00:45:13;;;;;;;3.20;3.00;;;;;;;17.58;99.72;100572.31;5050425;28;20229;-72
2021/06/12 00:47:39;;;;;;;3.73;3.43;;;;;;;17.60;99.59;100572.75;5050369;28;20155;-72
2021/06/12 00:50:07;;;;;;;3.67;3.37;;;;;;;17.62;99.93;100573.19;5032801;28;20558;-73
2021/06/12 00:52:33;;;;;;;3.73;3.43;;;;;;;17.65;99.84;100572.50;5050766;28;20210;-73
2021/06/12 00:54:59;;;;;;;3.53;3.33;;;;;;;17.66;99.68;100571.34;5050529;28;20175;-72
2021/06/12 00:57:25;;;;;;;3.60;3.30;;;;;;;17.67;99.63;100572.94;5050146;28;20177;-73
2021/06/12 00:59:50;;;;;;;5.07;3.80;;;;;;;17.68;99.65;100569.06;5032513;28;20533;-72
2021/06/12 01:02:16;;;;;;;3.60;3.30;;;;;;;17.69;99.35;100565.13;5050293;28;20669;-73
2021/06/12 01:04:41;;;;;;;4.50;4.20;;;;;;;17.74;99.05;100567.63;5050291;28;20375;-73
2021/06/12 01:07:06;;;;;;;3.30;3.10;;;;;;;17.77;98.85;100566.09;5050145;28;20528;-73
2021/06/12 01:09:32;;;;;;;4.13;3.83;;;;;;;17.79;98.76;100561.84;5050213;28;20168;-73
2021/06/12 01:12:05;;;;;;;4.47;4.10;;;;;;;17.82;98.47;100565.84;5050175;28;20171;-72
2021/06/12 01:14:35;;;;;;;4.40;4.10;;;;;;;17.82;98.29;100558.34;5050181;28;20525;-72
2021/06/12 01:17:21;;;;;;;4.80;4.40;;;;;;;17.84;98.13;100564.31;5049973;28;20507;-73
2021/06/12 01:20:02;;;;;;;9.03;4.30;;;;;;;17.88;98.25;100569.13;5050239;28;20167;-72
2021/06/12 01:22:42;;;;;;;4.23;3.93;;;;;;;17.88;98.00;100572.69;5065508;28;20233;-72
2021/06/12 01:25:17;;;;;;;4.20;3.97;;;;;;;17.89;98.19;100560.47;5050221;28;20167;-73
2021/06/12 01:27:55;;;;;;;4.63;4.23;;;;;;;17.88;97.98;100556.13;5050014;28;20156;-73
2021/06/12 01:30:22;;;;;;;4.03;3.73;;;;;;;17.85;97.88;100565.13;5050187;28;20179;-73
2021/06/12 01:33:05;;;;;;;4.37;4.03;;;;;;;17.85;98.04;100562.38;5050144;28;20174;-73
2021/06/12 01:35:40;;;;;;;4.93;4.60;;;;;;;17.87;97.99;100559.25;5049985;28;20182;-72
2021/06/12 01:38:07;;;;;;;4.67;4.30;;;;;;;17.87;97.63;100562.00;5051066;28;20607;-73
2021/06/12 01:40:35;;;;;;;4.37;4.03;;;;;;;17.84;97.90;100558.00;5053569;28;20176;-72
2021/06/12 01:43:03;;;;;;;4.83;4.43;;;;;;;17.80;98.08;100557.13;5053589;28;20534;-73
2021/06/12 01:45:29;;;;;;;4.47;4.17;;;;;;;17.80;98.25;100557.13;5053555;28;20179;-72
2021/06/12 01:47:55;;;;;;;4.40;4.00;;;;;;;17.75;98.57;100558.16;5053281;28;20175;-72
2021/06/12 01:50:23;;;;;;;4.13;3.83;;;;;;;17.69;98.75;100556.84;5053447;28;20588;-72
2021/06/12 01:52:49;;;;;;;4.87;4.47;;;;;;;17.66;99.36;100553.97;5052935;28;20262;-73
2021/06/12 01:55:17;;;;;;;5.43;4.43;;;;;;;17.65;99.13;100555.94;5053088;28;20221;-73
2021/06/12 01:57:43;;;;;;;4.17;3.87;;;;;;;17.63;98.99;100558.22;5052849;28;20207;-73
2021/06/12 02:00:11;;;;;;;4.63;4.30;;;;;;;17.61;98.94;100551.44;5052537;28;20230;-73
2021/06/12 02:02:38;;;;;;;4.00;3.80;;;;;;;17.58;99.25;100547.44;5052613;28;20704;-73
2021/06/12 02:05:05;;;;;;;4.00;3.70;;;;;;;17.52;99.41;100551.63;5052616;28;20171;-72
2021/06/12 02:07:31;;;;;;;4.37;4.00;;;;;;;17.51;99.88;100547.28;5052569;28;20175;-73
2021/06/12 02:09:57;;;;;;;5.03;4.63;;;;;;;17.52;99.58;100546.13;5052543;28;20182;-73
2021/06/12 02:12:25;;;;;;;4.97;4.67;;;;;;;17.49;99.72;100546.81;5052310;28;20187;-73
2021/06/12 02:14:51;;;;;;;4.03;3.73;;;;;;;17.48;99.91;100546.00;5052638;28;20518;-73
2021/06/12 02:17:18;;;;;;;4.97;4.57;;;;;;;17.50;99.98;100549.25;5052077;28;20171;-72
2021/06/12 02:19:44;;;;;;;4.67;4.37;;;;;;;17.48;99.86;100542.44;5052345;28;20175;-73
2021/06/12 02:22:10;;;;;;;4.60;4.30;;;;;;;17.50;100.00;100542.88;5052272;28;20537;-73
2021/06/12 02:24:35;;;;;;;4.70;4.33;;;;;;;17.49;100.00;100539.31;5052750;28;20178;-72
2021/06/12 02:27:01;;;;;;;4.30;4.00;;;;;;;17.49;100.00;100536.56;5033878;28;20580;-73
2021/06/12 02:29:30;;;;;;;3.90;3.60;;;;;;;17.49;100.00;100546.81;5052217;28;20690;-73
2021/06/12 02:32:17;;;;;;;4.20;3.80;;;;;;;17.50;100.00;100534.59;5052122;28;20171;-73
2021/06/12 02:34:42;;;;;;;3.87;3.57;;;;;;;17.49;100.00;100533.78;5051894;28;20179;-73
2021/06/12 02:37:08;;;;;;;4.23;3.93;;;;;;;17.52;100.00;100535.06;5052057;28;20252;-72
2021/06/12 02:39:35;;;;;;;4.07;3.77;;;;;;;17.53;100.00;100547.72;5052477;28;20646;-73
2021/06/12 02:42:00;;;;;;;3.90;3.60;;;;;;;17.51;100.00;100550.84;5052376;28;20450;-73
2021/06/12 02:44:27;;;;;;;4.17;3.87;;;;;;;17.51;100.00;100556.38;5052415;28;20175;-73
2021/06/12 02:46:57;;;;;;;3.90;3.60;;;;;;;17.54;100.00;100554.84;5051535;28;20182;-73
2021/06/12 02:49:27;;;;;;;3.60;3.40;;;;;;;17.59;100.00;100545.47;5052331;28;20225;-73
2021/06/12 02:51:57;;;;;;;4.37;4.07;;;;;;;17.63;100.00;100546.38;5051894;28;20482;-73
2021/06/12 02:54:25;;;;;;;4.63;4.23;;;;;;;17.67;99.96;100550.84;5052194;28;20171;-73
2021/06/12 02:56:54;;;;;;;4.23;3.90;;;;;;;17.69;99.69;100542.22;5051888;28;20195;-72
2021/06/12 02:59:20;;;;;;;4.43;4.13;;;;;;;17.69;99.62;100543.03;5052050;28;20190;-73
2021/06/12 03:01:46;;;;;;;4.17;3.87;;;;;;;17.64;99.22;100545.22;5051982;28;20595;-73
2021/06/12 03:04:15;;;;;;;4.20;3.83;;;;;;;17.58;99.33;100524.53;5051740;28;20206;-73
2021/06/12 03:06:42;;;;;;;4.53;4.23;;;;;;;17.52;99.58;100540.59;5051650;28;20512;-73
2021/06/12 03:09:13;;;;;;;4.60;4.30;;;;;;;17.50;100.00;100540.13;5051908;28;20631;-73
2021/06/12 03:11:40;;;;;;;4.70;4.40;;;;;;;17.47;100.00;100540.84;5052029;28;20189;-73
2021/06/12 03:14:05;;;;;;;3.67;3.47;;;;;;;17.46;100.00;100544.75;5051763;28;20217;-73
2021/06/12 03:16:31;;;;;;;22.97;6.10;;;;;;;17.45;100.00;100538.44;5051600;28;20202;-73
2021/06/12 03:18:59;;;;;;;4.30;4.00;;;;;;;17.48;100.00;100537.72;5051893;28;20175;-73
2021/06/12 03:21:26;;;;;;;5.63;5.23;;;;;;;17.52;100.00;100537.81;5051692;28;20202;-72
2021/06/12 03:23:52;;;;;;;6.63;6.00;;;;;;;17.55;100.00;100521.34;5051566;28;20194;-73
2021/06/12 03:26:19;;;;;;;5.00;4.57;;;;;;;17.61;100.00;100534.88;5033829;28;20288;-73
2021/06/12 03:28:45;;;;;;;5.83;5.33;;;;;;;17.63;99.82;100530.59;5051480;28;20509;-72
2021/06/12 03:31:11;;;;;;;4.10;3.73;;;;;;;17.70;99.39;100535.53;5051613;28;20528;-73
2021/06/12 03:33:36;;;;;;;5.10;4.80;;;;;;;17.73;99.05;100543.91;5051318;28;20167;-73
2021/06/12 03:36:03;;;;;;;5.77;5.30;;;;;;;17.73;99.00;100543.09;5051431;28;20175;-73
2021/06/12 03:38:30;;;;;;;6.27;5.77;;;;;;;17.76;98.86;100534.91;5051111;28;20555;-73
2021/06/12 03:40:56;;;;;;;5.80;5.33;;;;;;;17.76;98.63;100542.38;5051659;28;20175;-73
2021/06/12 03:43:24;;;;;;;5.77;5.27;;;;;;;17.78;98.40;100532.56;5051597;28;20191;-73
2021/06/12 03:45:52;;;;;;;5.87;5.37;;;;;;;17.80;98.45;100537.78;5050749;28;20326;-73
2021/06/12 03:48:21;;;;;;;6.70;6.20;;;;;;;17.82;98.35;100532.69;5051136;28;20634;-73
2021/06/12 03:50:49;;;;;;;6.80;6.27;;;;;;;17.83;98.35;100532.31;5051379;28;20183;-73
2021/06/12 03:53:15;;;;;;;6.90;6.30;;;;;;;17.83;98.08;100529.56;5051238;28;20206;-73
2021/06/12 03:55:40;;;;;;;5.67;5.17;;;;;;;17.86;98.03;100528.03;5051047;28;20704;-73
2021/06/12 03:58:06;;;;;;;7.37;6.80;;;;;;;17.87;98.40;100539.88;5051092;28;20187;-73
2021/06/12 04:00:31;;;;;;;6.67;6.17;;;;;;;17.88;98.42;100531.22;5050100;28;20191;-73
2021/06/12 04:02:57;;;;;;;6.10;5.60;;;;;;;17.88;98.14;100539.53;5050795;28;20344;-73
2021/06/12 04:05:22;;;;;;;7.00;6.40;;;;;;;17.87;98.25;100524.09;5050908;28;20179;-72
2021/06/12 04:07:47;;;;;;;8.10;6.63;;;;;;;17.85;98.26;100529.19;5050632;28;20298;-73
2021/06/12 04:10:13;;;;;;;8.40;7.30;;;;;;;17.85;98.50;100520.91;5050911;28;20175;-73
2021/06/12 04:12:39;;;;;;;8.00;7.27;;;;;;;17.86;98.65;100530.00;5050644;28;20177;-73
2021/06/12 04:15:05;;;;;;;7.50;6.73;;;;;;;17.88;98.65;100539.53;5050824;28;20649;-72
2021/06/12 04:17:31;;;;;;;7.73;7.03;;;;;;;17.91;98.94;100524.19;5050106;28;20218;-73
2021/06/12 04:19:57;;;;;;;8.03;7.30;;;;;;;17.92;98.75;100534.88;5050896;28;20195;-73
2021/06/12 04:22:22;;;;;;;7.73;7.07;;;;;;;17.90;98.96;100536.41;5050717;28;20590;-73
2021/06/12 04:24:47;;;;;;;8.17;7.47;;;;;;;17.90;99.03;100536.41;5050733;28;20189;-73
2021/06/12 04:27:13;;;;;;;7.93;7.13;;;;;;;17.86;99.15;100522.50;5050405;28;20210;-73
2021/06/12 04:29:38;;;;;;;8.47;7.47;;;;;;;17.87;99.13;100531.59;5050670;28;20175;-73
2021/06/12 04:32:04;;;;;;;6.03;5.63;;;;;;;17.86;98.90;100530.78;5050556;28;20175;-73
2021/06/12 04:34:29;;;;;;;4.53;4.13;;;;;;;17.87;98.82;100531.59;5050587;28;20190;-73
2021/06/12 04:36:55;;;;;;;8.43;6.33;;;;;;;17.84;99.14;100525.63;5050392;28;20262;-73
2021/06/12 04:39:21;;;;;;;6.97;6.33;;;;;;;17.82;99.27;100529.91;5032839;28;20211;-73
2021/06/12 04:41:47;;;;;;;6.43;5.93;;;;;;;17.81;99.17;100514.50;5051816;28;20182;-73
2021/06/12 04:44:12;;;;;;;6.40;5.90;;;;;;;17.79;99.14;100525.06;5051222;28;20203;-73
2021/06/12 04:46:39;;;;;;;6.10;5.70;;;;;;;17.79;99.34;100519.56;5049938;28;20654;-73
2021/06/12 04:49:05;;;;;;;6.57;5.97;;;;;;;17.80;99.00;100512.91;5050579;28;20218;-73
2021/06/12 04:51:30;;;;;;;6.57;6.07;;;;;;;17.80;98.95;100516.47;5050326;28;20203;-73
2021/06/12 04:53:55;;;;;;;9.73;7.67;;;;;;;17.83;98.98;100514.94;5050368;28;20678;-73
2021/06/12 04:56:21;;;;;;;8.43;7.73;;;;;;;17.86;98.21;100513.41;5050191;28;20175;-73
2021/06/12 04:58:46;;;;;;;6.63;6.07;;;;;;;17.87;98.21;100515.00;5049943;28;20532;-74
2021/06/12 05:01:11;;;;;;;5.47;5.00;;;;;;;17.86;98.07;100514.22;5049826;28;20179;-74
2021/06/12 05:03:37;;;;;;;7.77;7.07;;;;;;;17.86;98.26;100514.22;5050152;28;20549;-74
2021/06/12 05:06:03;;;;;;;7.10;6.47;;;;;;;17.89;98.64;100526.50;5049839;28;20167;-73
2021/06/12 05:08:29;;;;;;;5.97;5.50;;;;;;;17.88;98.53;100519.38;5064973;28;20241;-73
2021/06/12 05:10:54;;;;;;;7.33;6.67;;;;;;;17.93;98.80;100521.84;5049843;28;20546;-73
2021/06/12 05:13:19;;;;;;;6.53;6.00;;;;;;;18.00;98.43;100519.28;5053202;28;20174;-73
2021/06/12 05:15:46;;;;;;;7.87;6.50;;;;;;;18.08;98.41;100513.56;5053549;28;20623;-73
2021/06/12 05:18:13;;;;;;;4.17;3.77;;;;;;;18.09;97.86;100511.59;5053836;28;20182;-73
2021/06/12 05:20:39;;;;;;;8.43;7.70;;;;;;;18.09;97.67;100508.84;5053419;28;20194;-73
2021/06/12 05:23:05;;;;;;;8.50;7.60;;;;;;;18.14;97.10;100522.38;5053355;28;20234;-73
2021/06/12 05:25:32;;;;;;;6.53;5.93;;;;;;;18.15;97.10;100518.44;5053363;28;20304;-74
2021/06/12 05:27:58;;;;;;;5.57;5.07;;;;;;;18.19;96.92;100519.31;5053146;28;20782;-74
2021/06/12 05:30:24;;;;;;;10.07;8.93;;;;;;;18.20;97.35;100514.59;5053298;28;20171;-73
2021/06/12 05:32:49;;;;;;;8.23;7.53;;;;;;;18.20;96.99;100515.38;5053375;28;20237;-72
2021/06/12 05:35:15;;;;;;;8.67;7.83;;;;;;;18.19;96.93;100511.00;5053109;28;20571;-72
2021/06/12 05:37:41;;;;;;;8.70;7.80;;;;;;;18.23;97.35;100511.13;5052925;28;20183;-72
2021/06/12 05:40:08;;;;;;;9.07;8.27;;;;;;;18.32;97.55;100512.50;5053348;28;20171;-72
2021/06/12 05:42:34;;;;;;;8.33;6.37;;;;;;;18.41;96.51;100513.09;5052989;28;20191;-72
2021/06/12 05:44:59;;;;;;;6.60;6.00;;;;;;;18.41;95.57;100529.69;5053013;28;20184;-72
2021/06/12 05:47:25;;;;;;;7.70;7.10;;;;;;;18.43;95.54;100529.34;5052135;28;20216;-72
2021/06/12 05:49:50;;;;;;;8.50;7.53;;;;;;;18.41;95.92;100537.19;5053131;28;20186;-72
2021/06/12 05:52:15;;;;;;;5.43;5.03;;;;;;;18.45;96.04;100532.53;5052864;28;20533;-72
2021/06/12 05:54:41;;;;;;;7.50;6.33;;;;;;;18.48;95.85;100528.25;5052836;28;20167;-73
2021/06/12 05:57:06;;;;;;;6.53;6.03;;;;;;;18.47;95.98;100527.44;5052474;28;20627;-73
2021/06/12 05:59:32;;;;;;;9.10;6.83;;;;;;;18.49;95.61;100543.66;5052772;28;20532;-72
2021/06/12 06:01:57;;;;;;;7.10;6.50;;;;;;;18.50;95.25;100535.00;5052473;28;20186;-73
2021/06/12 06:04:23;;;;;;;8.03;7.43;;;;;;;18.50;94.77;100531.44;5068025;28;20539;-72
2021/06/12 06:06:50;;;;;;;6.67;6.13;;;;;;;18.55;94.22;100531.97;5052348;28;20631;-72
2021/06/12 06:09:15;;;;;;;7.93;6.57;;;;;;;18.59;94.60;100543.91;5052601;28;20190;-73
2021/06/12 06:11:41;;;;;;;6.53;5.90;;;;;;;18.61;93.88;100541.56;5052595;28;20622;-72
2021/06/12 06:14:06;;;;;;;7.00;4.57;;;;;;;18.57;91.73;100537.94;5052397;28;20202;-72
2021/06/12 06:16:32;;;;;;;4.60;4.23;;;;;;;18.53;91.47;100534.31;5052456;28;20171;-73
2021/06/12 06:18:57;;;;;;;10.13;3.97;;;;;;;18.56;91.41;100541.06;5052415;28;20171;-74
2021/06/12 06:21:22;;;;;;;6.87;6.23;;;;;;;18.55;90.97;100534.75;5055482;28;20183;-73
2021/06/12 06:23:48;;;;;;;8.00;7.30;;;;;;;18.53;91.11;100534.31;5070724;28;20213;-74
2021/06/12 06:26:14;;;;;;;7.80;7.00;;;;;;;18.49;91.94;100533.41;5072769;28;20171;-73
2021/06/12 06:28:39;;;;;;;5.43;5.00;;;;;;;18.49;91.97;100541.72;5053777;28;20647;-73
2021/06/12 06:31:04;;;;;;;9.20;7.03;;;;;;;18.45;91.62;100527.00;5052659;28;20175;-73
2021/06/12 06:33:30;;;;;;;6.57;6.07;;;;;;;18.39;91.33;100526.50;5052684;28;20183;-73
2021/06/12 06:35:55;;;;;;;6.20;5.80;;;;;;;18.42;91.71;100519.44;5052506;28;20179;-73
2021/06/12 06:38:21;;;;;;;10.73;7.87;;;;;;;18.48;91.30;100523.50;5067669;28;20266;-73
2021/06/12 06:40:47;;;;;;;6.87;6.27;;;;;;;18.54;91.57;100524.84;5052440;28;20686;-73
2021/06/12 06:43:13;;;;;;;7.00;6.40;;;;;;;18.55;91.40;100526.44;5052285;28;20207;-73
2021/06/12 06:45:40;;;;;;;7.33;6.73;;;;;;;18.51;90.65;100528.31;5052005;28;20237;-73
2021/06/12 06:48:06;;;;;;;7.73;7.03;;;;;;;18.50;91.35;100531.44;5052214;28;20186;-73
2021/06/12 06:50:31;;;;;;;7.47;5.03;;;;;;;18.44;90.41;100523.44;5052218;28;20301;-73
2021/06/12 06:52:59;;;;;;;8.27;7.17;;;;;;;18.40;90.81;100533.63;5052259;28;20661;-73
2021/06/12 06:55:25;;;;;;;6.20;5.57;;;;;;;18.41;91.54;100528.91;5052245;28;20197;-73
2021/06/12 06:57:50;;;;;;;7.00;6.40;;;;;;;18.35;91.53;100527.56;5052050;28;20631;-73
2021/06/12 07:00:16;;;;;;;4.23;3.87;;;;;;;18.32;91.61;100537.38;5051993;28;20228;-73
2021/06/12 07:02:41;;;;;;;6.97;6.30;;;;;;;18.29;92.05;100532.59;5054068;28;20206;-73
2021/06/12 07:05:08;;;;;;;5.83;5.33;;;;;;;18.30;92.33;100527.84;5066070;28;20640;-73
2021/06/12 07:07:33;;;;;;;6.43;5.93;;;;;;;18.25;92.22;100517.88;5051708;28;20187;-73
2021/06/12 07:09:59;;;;;;;6.10;5.50;;;;;;;18.22;92.30;100520.53;5051875;28;20167;-73
2021/06/12 07:12:24;;;;;;;6.37;4.97;;;;;;;18.19;92.37;100524.03;5051167;28;20190;-73
2021/06/12 07:14:49;;;;;;;4.00;3.60;;;;;;;18.13;92.45;100526.28;5052169;28;20178;-72
2021/06/12 07:17:15;;;;;;;6.73;6.13;;;;;;;18.09;92.86;100526.22;5051690;28;20706;-73
2021/06/12 07:19:40;;;;;;;7.20;6.60;;;;;;;18.06;92.95;100528.88;5051694;28;20180;-73
2021/06/12 07:22:05;;;;;;;7.70;6.90;;;;;;;18.06;93.83;100534.41;5051611;28;20171;-73
2021/06/12 07:24:31;;;;;;;8.83;6.93;;;;;;;18.04;94.13;100520.94;5051523;28;20242;-73
2021/06/12 07:26:57;;;;;;;8.27;7.57;;;;;;;18.00;94.88;100528.38;5051610;28;20198;-73
2021/06/12 07:29:23;;;;;;;8.33;7.30;;;;;;;18.02;95.65;100528.00;5032963;28;20217;-74
2021/06/12 07:31:48;;;;;;;7.70;7.00;;;;;;;18.01;96.04;100524.44;5051465;28;20386;-73
2021/06/12 07:34:14;;;;;;;9.33;6.90;;;;;;;18.02;96.76;100525.25;5051557;28;20190;-73
2021/06/12 07:36:40;;;;;;;5.83;5.23;;;;;;;17.98;97.30;100527.13;5051312;28;20501;-72
2021/06/12 07:39:08;;;;;;;6.80;6.30;;;;;;;17.83;98.52;100524.03;5051274;28;20207;-72
2021/06/12 07:41:35;;;;;;;10.40;7.13;;;;;;;17.72;100.00;100519.41;5051349;28;20171;-77
2021/06/12 07:44:00;;;;;;;7.67;7.07;;;;;;;17.63;100.00;100524.25;5051207;28;20206;-76
2021/06/12 07:46:26;;;;;;;7.70;7.00;;;;;;;17.55;100.00;100518.56;5033076;28;20171;-73
2021/06/12 07:48:51;;;;;;;8.87;8.07;;;;;;;17.50;100.00;100524.38;5051087;28;20167;-75
2021/06/12 07:51:17;;;;;;;10.60;9.70;;;;;;;17.48;100.00;100534.16;5051161;28;20171;-75
2021/06/12 07:53:43;;;;;;;8.97;8.17;;;;;;;17.48;100.00;100532.19;5051081;28;20163;-76
2021/06/12 07:56:08;;;;;;;9.00;8.20;;;;;;;17.55;100.00;100523.28;5050704;28;20171;-75
2021/06/12 07:58:33;;;;;;;9.40;8.53;;;;;;;17.65;100.00;100517.25;5037674;28;20187;-78
2021/06/12 08:00:59;;;;;;;10.73;9.63;;;;;;;17.71;100.00;100509.50;5040344;28;20206;-74
2021/06/12 08:03:24;;;;;;;11.27;10.20;;;;;;;17.87;100.00;100523.31;5050478;28;20293;-74
2021/06/12 08:05:50;;;;;;;10.73;9.73;;;;;;;17.92;100.00;100520.25;5070248;28;20221;-74
2021/06/12 08:08:15;;;;;;;7.83;7.13;;;;;;;18.07;100.00;100511.94;5070621;28;20177;-74
2021/06/12 08:10:41;;;;;;;11.63;8.23;;;;;;;18.27;100.00;100525.81;5067222;28;20187;-74
2021/06/12 08:13:06;;;;;;;6.80;6.23;;;;;;;18.33;99.98;100536.22;5050882;28;20175;-74
2021/06/12 08:15:32;;;;;;;5.70;5.23;;;;;;;18.31;98.88;100529.47;5050911;28;20263;-73
2021/06/12 08:17:57;;;;;;;6.43;5.80;;;;;;;18.31;97.64;100521.16;5050652;28;20183;-75
2021/06/12 08:20:24;;;;;;;5.67;5.13;;;;;;;18.38;98.63;100532.41;5050772;28;20186;-74
2021/06/12 08:22:50;;;;;;;6.70;6.10;;;;;;;18.47;98.52;100513.59;5050693;28;20199;-73
2021/06/12 08:25:16;;;;;;;6.50;6.00;;;;;;;18.63;97.83;100505.22;5050765;28;20590;-74
2021/06/12 08:27:41;;;;;;;5.43;5.00;;;;;;;18.66;95.86;100507.28;5050545;28;20171;-73
2021/06/12 08:30:08;;;;;;;5.77;5.33;;;;;;;18.74;95.12;100506.28;5050521;28;20213;-73
2021/06/12 08:32:33;;;;;;;6.10;5.60;;;;;;;18.75;94.52;100515.38;5050955;28;20277;-73
2021/06/12 08:34:59;;;;;;;5.93;5.47;;;;;;;18.72;92.55;100512.19;5050652;28;20608;-73
2021/06/12 08:37:24;;;;;;;2.23;2.10;;;;;;;18.71;93.06;100510.59;5050487;28;20182;-74
2021/06/12 08:39:52;;;;;;;5.10;4.73;;;;;;;18.73;93.13;100515.75;5050438;28;20905;-73
2021/06/12 08:42:18;;;;;;;4.53;4.23;;;;;;;18.76;92.82;100503.16;5048803;28;20175;-73
2021/06/12 08:44:45;;;;;;;4.87;4.50;;;;;;;18.79;91.59;100502.41;5049599;28;20183;-74
2021/06/12 08:47:11;;;;;;;5.37;3.53;;;;;;;18.75;91.07;100509.84;5059226;28;20179;-74
2021/06/12 08:49:38;;;;;;;4.03;3.73;;;;;;;18.81;91.65;100506.44;5054372;28;20182;-74
2021/06/12 08:52:03;;;;;;;4.47;4.17;;;;;;;18.93;91.00;100497.94;5070247;28;20202;-74
2021/06/12 08:54:29;;;;;;;5.30;4.83;;;;;;;19.00;90.84;100495.34;5054550;28;20645;-74
2021/06/12 08:56:55;;;;;;;5.00;3.43;;;;;;;19.09;90.15;100499.81;5054392;28;20215;-74
2021/06/12 08:59:21;;;;;;;4.73;4.20;;;;;;;19.21;90.21;100496.88;5054328;28;20178;-74
2021/06/12 09:01:47;;;;;;;4.60;4.20;;;;;;;19.36;89.40;100497.94;5036628;28;20545;-74
2021/06/12 09:04:27;;;;;;;4.43;4.13;;;;;;;19.39;88.28;100498.03;5054158;28;20271;-74
2021/06/12 09:07:35;;;;;;;4.40;3.97;;;;;;;19.42;88.20;100502.81;5054232;28;20571;-73
2021/06/12 09:10:00;;;;;;;3.67;3.00;;;;;;;19.43;86.92;100503.63;5054183;28;20178;-73
2021/06/12 09:12:49;;;;;;;4.90;4.50;;;;;;;19.55;87.03;100503.47;5054048;28;20175;-73
2021/06/12 09:15:18;;;;;;;3.40;3.13;;;;;;;19.74;87.36;100486.72;5054242;28;20179;-73
2021/06/12 09:17:46;;;;;;;3.47;3.27;;;;;;;19.74;84.97;100503.38;5069259;28;20179;-72
2021/06/12 09:20:18;;;;;;;4.10;3.80;;;;;;;19.66;84.67;100496.09;5054141;28;20195;-72
2021/06/12 09:22:43;;;;;;;2.57;2.43;;;;;;;19.71;84.87;100503.31;5053676;28;20213;-72
2021/06/12 09:25:09;;;;;;;2.77;2.57;;;;;;;19.71;85.55;100503.31;5053909;28;20171;-73
2021/06/12 09:27:35;;;;;;;5.10;4.63;;;;;;;19.84;83.91;100497.19;5053776;28;20179;-72
2021/06/12 09:30:09;;;;;;;4.23;3.93;;;;;;;19.92;83.92;100503.63;5053858;28;20181;-73
2021/06/12 09:32:44;;;;;;;3.50;3.30;;;;;;;20.01;83.08;100495.88;5054086;28;20155;-73
2021/06/12 09:35:11;;;;;;;3.10;2.90;;;;;;;20.09;83.78;100497.53;5054131;28;20212;-73
2021/06/12 09:37:36;;;;;;;2.83;2.63;;;;;;;20.10;81.96;100490.81;5068497;28;20171;-73
2021/06/12 09:40:05;;;;;;;2.80;2.60;;;;;;;20.32;80.45;100493.91;5053409;28;20174;-72
2021/06/12 09:42:48;;;;;;;2.90;2.70;;;;;;;20.34;79.52;100483.22;5053027;28;20168;-73
2021/06/12 09:45:16;;;;;;;4.50;2.43;;;;;;;20.37;79.68;100485.25;5052967;28;20193;-73
2021/06/12 09:47:42;;;;;;;2.30;2.20;;;;;;;20.45;80.25;100490.56;5052775;28;20179;-73
2021/06/12 09:50:09;;;;;;;3.17;2.93;;;;;;;20.43;78.05;100470.72;5035152;28;20268;-73
2021/06/12 09:52:49;;;;;;;3.23;3.03;;;;;;;20.50;80.17;100486.63;5053025;28;20175;-73
2021/06/12 09:55:29;;;;;;;3.87;3.13;;;;;;;20.69;78.92;100494.03;5052286;28;20183;-73
2021/06/12 09:57:56;;;;;;;2.53;2.33;;;;;;;20.78;76.54;100489.75;5055198;28;20179;-73
2021/06/12 10:00:32;;;;;;;2.47;2.27;;;;;;;21.03;76.08;100492.81;5051833;28;20190;-73
2021/06/12 10:02:58;;;;;;;2.30;2.13;;;;;;;20.93;74.54;100487.94;5051708;28;20277;-72
2021/06/12 10:05:25;;;;;;;3.83;3.53;;;;;;;20.80;77.02;100476.28;5052730;28;20263;-73
2021/06/12 10:07:51;;;;;;;4.00;3.60;;;;;;;20.61;75.99;100484.78;5052305;28;20186;-72
2021/06/12 10:10:17;;;;;;;1.97;1.77;;;;;;;20.55;76.93;100489.09;5064419;28;20179;-72
2021/06/12 10:12:42;;;;;;;2.87;2.60;;;;;;;20.35;77.32;100480.06;5073026;28;20185;-72
2021/06/12 10:15:10;;;;;;;2.00;1.90;;;;;;;20.24;76.28;100483.88;5060140;28;20588;-72
2021/06/12 10:17:47;;;;;;;2.90;2.70;;;;;;;20.45;76.68;100479.44;5052799;28;20171;-72
2021/06/12 10:20:16;;;;;;;2.13;2.03;;;;;;;20.91;75.68;100473.63;5053257;28;20166;-72
2021/06/12 10:22:43;;;;;;;1.10;1.10;;;;;;;20.97;72.27;100479.63;5052728;28;20195;-73
2021/06/12 10:25:10;;;;;;;2.87;2.67;;;;;;;20.78;74.92;100475.88;5052844;28;20164;-72
2021/06/12 10:27:38;;;;;;;3.43;3.13;;;;;;;20.55;75.66;100478.00;5052507;28;20178;-72
2021/06/12 10:30:04;;;;;;;3.43;3.23;;;;;;;20.37;76.11;100479.69;5052665;28;20638;-73
2021/06/12 10:32:31;;;;;;;5.20;2.83;;;;;;;20.19;76.85;100479.47;5052148;28;20174;-73
2021/06/12 10:35:02;;;;;;;2.77;2.57;;;;;;;20.02;76.83;100486.38;5052632;28;20163;-73
2021/06/12 10:37:27;;;;;;;3.73;3.30;;;;;;;19.83;77.34;100478.16;5052452;28;20243;-73
2021/06/12 10:40:04;;;;;;;2.47;2.37;;;;;;;19.66;77.88;100492.53;5052594;28;20163;-73
2021/06/12 10:42:29;;;;;;;3.00;2.80;;;;;;;19.59;78.56;100496.78;5052463;28;20174;-73
2021/06/12 10:44:55;;;;;;;2.50;2.30;;;;;;;19.52;78.22;100504.16;5052512;28;20175;-73
2021/06/12 10:47:37;;;;;;;4.13;3.37;;;;;;;19.45;78.41;100504.84;5058124;28;20683;-73
2021/06/12 10:50:25;;;;;;;1.70;1.60;;;;;;;19.42;77.67;100513.91;5072289;28;20190;-73
2021/06/12 10:52:51;;;;;;;2.73;2.60;;;;;;;19.52;78.87;100510.50;5062545;28;20616;-73
2021/06/12 10:55:39;;;;;;;4.43;4.03;;;;;;;19.60;78.26;100509.47;5054100;28;20178;-73
2021/06/12 10:58:29;;;;;;;2.73;2.53;;;;;;;19.57;77.89;100506.66;5052073;28;20179;-73
2021/06/12 11:01:07;;;;;;;2.73;2.53;;;;;;;19.58;77.35;100499.94;5052043;28;20191;-73
2021/06/12 11:04:11;;;;;;;2.80;2.60;;;;;;;19.61;77.49;100499.19;5052028;28;20281;-73
2021/06/12 11:09:13;;;;;;;2.87;2.63;;;;;;;20.22;72.93;100509.22;5051387;28;20190;-73
2021/06/12 11:11:46;;;;;;;2.13;2.03;;;;;;;20.64;71.35;100505.44;5063599;28;20191;-73
2021/06/12 11:14:20;;;;;;;2.97;2.77;;;;;;;20.72;71.38;100507.94;5069058;28;20670;-73
2021/06/12 11:17:04;;;;;;;2.47;2.27;;;;;;;20.69;70.28;100497.59;5063626;28;20670;-73
2021/06/12 11:19:33;;;;;;;2.03;1.93;;;;;;;20.56;69.48;100501.78;5070269;28;20206;-73
2021/06/12 11:22:30;;;;;;;2.60;2.40;;;;;;;20.47;71.22;100504.84;5071742;28;20522;-74
2021/06/12 11:24:59;;;;;;;4.37;3.57;;;;;;;20.50;71.21;100506.88;5031746;28;20639;-73
2021/06/12 11:27:27;;;;;;;3.27;3.07;;;;;;;20.53;71.23;100505.31;5031557;28;20589;-73
2021/06/12 11:30:24;;;;;;;3.37;3.17;;;;;;;20.69;70.05;100505.94;5031694;28;20543;-73